ENEV/EVE METAR and TAF weather

Enter ICAO airport designator
Station Type Date Time Source
ENEV METAR 2019/08/21 22:20 UTC NOAA

ENEV 212220Z AUTO 28003KT 230V350 9999 OVC041/// 11/10 Q1016 RMK WIND 1400FT 23004KT


Station Type Date Time Source
ENEV Decoded METAR 2019/08/21 22:20 UTC NOAA

Station name not available
Aug 21, 2019 - 06:20 PM EDT / 2019.08.21 2220 UTC
Wind: from the W (280 degrees) at 3 MPH (3 KT) (direction variable):0
Visibility: greater than 7 mile(s):0
Sky conditions: overcast
Temperature: 51 F (11 C)
Dew Point: 50 F (10 C)
Relative Humidity: 93%
Pressure (altimeter): 30.00 in. Hg (1016 hPa)
ob: ENEV 212220Z AUTO 28003KT 230V350 9999 OVC041/// 11/10 Q1016 RMK WIND 1400FT 23004KT
cycle: 22

Station Type Date Time Source
ENEV TAF 2010/02/05 07:50 UTC NOAA

METAR ENEV 050750Z 14007KT 9999 FEW040 SCT055 M04/M09 Q1019

Example: see airport list